createdAt,value
2022-08-20T00:03:31.961Z,100411.72
2022-08-20T00:08:39.386Z,100408.72
2022-08-20T00:13:51.993Z,100405.13
2022-08-20T00:18:58.393Z,100383.63
2022-08-20T00:24:06.505Z,100393.66
2022-08-20T00:29:14.089Z,100379.75
2022-08-20T00:34:22.738Z,100368.59
2022-08-20T00:39:29.076Z,100370.25
2022-08-20T00:44:37.098Z,100362.59
2022-08-20T00:49:43.263Z,100352.25
2022-08-20T00:54:56.711Z,100335.91
2022-08-20T01:00:10.934Z,100339.47
2022-08-20T01:05:17.463Z,100349.88
2022-08-20T01:10:28.807Z,100358.88
2022-08-20T01:15:42.942Z,100353.19
2022-08-20T01:20:54.210Z,100325.75
2022-08-20T01:26:07.481Z,100336.06
2022-08-20T01:31:17.808Z,100336.97
2022-08-20T01:36:30.726Z,100330.47
2022-08-20T01:41:51.290Z,100314.94
2022-08-20T01:46:58.050Z,100310.38
2022-08-20T01:52:10.196Z,100315.38
2022-08-20T01:57:20.766Z,100305.97
2022-08-20T02:02:28.300Z,100302.28
2022-08-20T02:07:34.863Z,100302.69
2022-08-20T02:12:43.499Z,100331.31
2022-08-20T02:17:50.112Z,100372.69
2022-08-20T02:23:00.101Z,100344.28
2022-08-20T02:28:16.868Z,100336.09
2022-08-20T02:33:24.702Z,100306.91
2022-08-20T02:38:31.556Z,100274.81
2022-08-20T02:43:39.513Z,66999.84
2022-08-20T02:48:46.150Z,66999.84
2022-08-20T02:53:52.483Z,66999.84
2022-08-20T02:59:00.402Z,66999.84
2022-08-20T03:04:07.410Z,66999.84
2022-08-20T03:09:13.720Z,66999.84
2022-08-20T03:14:21.637Z,66999.84
2022-08-20T03:19:28.573Z,66999.84
2022-08-20T03:24:35.092Z,66999.84
2022-08-20T03:29:43.055Z,66999.84
2022-08-20T03:34:49.338Z,66999.84
2022-08-20T03:39:56.858Z,66999.84
2022-08-20T03:45:04.641Z,66999.84
2022-08-20T03:50:14.601Z,66999.84
2022-08-20T03:55:32.059Z,66999.84
2022-08-20T04:00:44.082Z,66999.84
2022-08-20T04:05:50.690Z,66999.84
2022-08-20T04:10:59.997Z,66999.84
2022-08-20T04:16:10.152Z,66999.84
2022-08-20T04:21:19.609Z,66999.84
2022-08-20T04:26:26.164Z,66999.84
2022-08-20T04:31:35.181Z,66999.84
2022-08-20T04:36:41.790Z,66999.84
2022-08-20T04:41:48.543Z,66999.84
2022-08-20T04:46:56.231Z,66999.84
2022-08-20T04:52:03.563Z,66999.84
2022-08-20T04:57:09.842Z,66999.84
2022-08-20T05:02:19.109Z,66999.84
2022-08-20T05:07:26.457Z,66999.84
2022-08-20T05:12:32.993Z,66999.84
2022-08-20T05:17:41.957Z,66999.84
2022-08-20T05:22:48.155Z,66999.84
2022-08-20T05:28:01.055Z,66999.84
2022-08-20T05:33:10.492Z,66999.84
2022-08-20T05:38:21.198Z,66999.84
2022-08-20T05:43:27.683Z,66999.84
2022-08-20T05:48:36.104Z,66999.84
2022-08-20T05:53:42.246Z,66999.84
2022-08-20T05:58:48.428Z,66999.84
2022-08-20T06:04:17.174Z,66999.84
2022-08-20T06:09:31.220Z,66999.84
2022-08-20T06:14:39.103Z,66999.84
2022-08-20T06:19:48.886Z,66999.84
2022-08-20T06:24:56.605Z,66999.84
2022-08-20T06:30:02.802Z,66999.84
2022-08-20T06:35:14.971Z,66999.84
2022-08-20T06:40:27.742Z,66999.84
2022-08-20T06:45:36.381Z,66999.84
2022-08-20T06:50:48.049Z,66999.84
2022-08-20T06:55:56.906Z,66999.84
2022-08-20T07:01:09.364Z,66999.84
2022-08-20T07:06:19.380Z,66999.84
2022-08-20T07:11:28.061Z,66999.84
2022-08-20T07:16:35.254Z,66999.84
2022-08-20T07:21:43.230Z,66999.84
2022-08-20T07:26:51.419Z,66999.84
2022-08-20T07:32:15.909Z,66999.84
2022-08-20T07:37:29.856Z,66999.84
2022-08-20T07:42:37.021Z,66999.84
2022-08-20T07:47:45.348Z,66999.84
2022-08-20T07:52:53.597Z,66999.84
2022-08-20T07:58:08.084Z,66999.84
2022-08-20T08:03:15.381Z,66999.84
2022-08-20T08:08:28.906Z,66999.84
2022-08-20T08:13:39.811Z,66999.84
2022-08-20T08:18:51.796Z,66999.84
2022-08-20T08:23:59.975Z,66999.84
2022-08-20T08:29:07.671Z,66999.84
2022-08-20T08:34:14.538Z,66999.84
2022-08-20T08:39:22.608Z,66999.84
2022-08-20T08:44:35.336Z,66999.84
2022-08-20T08:49:41.879Z,66999.84
2022-08-20T08:54:53.498Z,66999.84
2022-08-20T09:00:05.970Z,66999.84
2022-08-20T09:05:18.086Z,66999.84
2022-08-20T09:10:26.378Z,66999.84
2022-08-20T09:15:33.022Z,66999.84
2022-08-20T09:20:39.396Z,66999.84
2022-08-20T09:25:46.993Z,66999.84
2022-08-20T09:30:53.424Z,66999.84
2022-08-20T09:36:01.752Z,66999.84
2022-08-20T09:41:09.066Z,66999.84
2022-08-20T09:46:15.389Z,66999.84
2022-08-20T09:51:21.694Z,66999.84
2022-08-20T09:56:31.057Z,66999.84
2022-08-20T10:01:37.414Z,66999.84
2022-08-20T10:06:44.523Z,66999.84
2022-08-20T10:11:52.876Z,66999.84
2022-08-20T10:17:01.382Z,66999.84
2022-08-20T10:22:08.020Z,66999.84
2022-08-20T10:27:15.975Z,66999.84
2022-08-20T10:32:22.872Z,66999.84
2022-08-20T10:37:35.160Z,66999.84
2022-08-20T10:42:43.757Z,66999.84
2022-08-20T10:47:50.351Z,66999.84
2022-08-20T10:52:56.864Z,66999.84
2022-08-20T10:58:07.888Z,66999.84
2022-08-20T11:03:18.291Z,66999.84
2022-08-20T11:08:33.490Z,66999.84
2022-08-20T11:13:43.041Z,66999.84
2022-08-20T11:18:49.803Z,66999.84
2022-08-20T11:23:58.870Z,66999.84
2022-08-20T11:29:10.197Z,66999.84
2022-08-20T11:34:16.774Z,66999.84
2022-08-20T11:39:23.168Z,66999.84
2022-08-20T11:44:31.135Z,66999.84
2022-08-20T11:49:39.344Z,66999.84
2022-08-20T11:54:45.387Z,66999.84
2022-08-20T11:59:55.638Z,66999.84
2022-08-20T12:05:02.167Z,66999.84
2022-08-20T12:10:11.639Z,66999.84
2022-08-20T12:15:19.807Z,66999.84
2022-08-20T12:20:26.815Z,66999.84
2022-08-20T12:25:33.305Z,66999.84
2022-08-20T12:30:42.736Z,66999.84
2022-08-20T12:35:49.022Z,66999.84
2022-08-20T12:40:55.217Z,66999.84
2022-08-20T12:46:03.060Z,66999.84
2022-08-20T12:51:09.356Z,66999.84
2022-08-20T12:56:15.428Z,66999.84
2022-08-20T13:01:23.340Z,66999.84
2022-08-20T13:06:29.681Z,66999.84
2022-08-20T13:11:37.259Z,66999.84
2022-08-20T13:16:46.031Z,66999.84
2022-08-20T13:21:55.090Z,66999.84
2022-08-20T13:27:08.506Z,66999.84
2022-08-20T13:32:17.261Z,66999.84
2022-08-20T13:37:28.572Z,66999.84
2022-08-20T13:42:34.889Z,66999.84
2022-08-20T13:47:44.475Z,66999.84
2022-08-20T13:52:51.298Z,66999.84
2022-08-20T13:57:59.331Z,66999.84
2022-08-20T14:03:08.434Z,66999.84
2022-08-20T14:08:17.472Z,66999.84
2022-08-20T14:13:28.714Z,66999.84
2022-08-20T14:18:36.605Z,66999.84
2022-08-20T14:23:44.267Z,66999.84
2022-08-20T14:28:50.593Z,66999.84
2022-08-20T14:33:59.346Z,66999.84
2022-08-20T14:39:15.305Z,66999.84
2022-08-20T14:44:30.214Z,66999.84
2022-08-20T14:49:58.007Z,66999.84
2022-08-20T14:55:15.966Z,66999.84
2022-08-20T15:00:37.494Z,66999.84
2022-08-20T15:05:59.445Z,66999.84
2022-08-20T15:11:18.070Z,66999.84
2022-08-20T15:16:32.254Z,66999.84
2022-08-20T15:21:45.079Z,66999.84
2022-08-20T15:26:52.416Z,66999.84
2022-08-20T15:32:01.377Z,66999.84
2022-08-20T15:37:13.520Z,66999.84
2022-08-20T15:42:22.017Z,66999.84
2022-08-20T15:47:32.472Z,66999.84
2022-08-20T15:52:45.250Z,66999.84
2022-08-20T15:58:01.308Z,66999.84
2022-08-20T16:03:36.982Z,66999.84
2022-08-20T16:09:16.014Z,66999.84
2022-08-20T16:14:29.531Z,66999.84
2022-08-20T16:19:54.168Z,66999.84
2022-08-20T16:25:03.341Z,66999.84
2022-08-20T16:30:18.927Z,66999.84
2022-08-20T16:35:34.155Z,66999.84
2022-08-20T16:40:49.989Z,66999.84
2022-08-20T16:46:02.176Z,66999.84
2022-08-20T16:51:14.865Z,66999.84
2022-08-20T16:56:36.340Z,66999.84
2022-08-20T17:01:43.387Z,66999.84
2022-08-20T17:06:52.921Z,66999.84
2022-08-20T17:12:20.923Z,66999.84
2022-08-20T17:17:31.497Z,66999.84
2022-08-20T17:22:45.321Z,66999.84
2022-08-20T17:27:53.350Z,66999.84
2022-08-20T17:33:03.395Z,66999.84
2022-08-20T17:38:24.711Z,66999.84
2022-08-20T17:43:35.775Z,66999.84
2022-08-20T17:48:55.220Z,66999.84
2022-08-20T17:54:13.546Z,66999.84
2022-08-20T17:59:33.626Z,66999.84
2022-08-20T18:05:12.121Z,66999.84
2022-08-20T18:10:25.536Z,66999.84
2022-08-20T18:15:38.307Z,66999.84
2022-08-20T18:21:33.377Z,66999.84
2022-08-20T18:26:50.806Z,66999.84
2022-08-20T18:32:01.566Z,66999.84
2022-08-20T18:37:25.577Z,66999.84
2022-08-20T18:42:36.843Z,66999.84
2022-08-20T18:47:47.953Z,66999.84
